Airfield :
LOGIN :

Register | Disclaimer

   EN    FR    IT 

 










Legend :    VFR   Marginal VFR   IFR   Intensive IFR   Very Intensive IFR
Visi :
Ceiling :
>= 8 km
>= 3000ft
5 to 8 km
1000 to 3000 ft
1500m to 5 km
500 to 1000 ft
800 to 1500m
200 to 500 ft
< 800m
< 200 ft
Symbols :   Thunderstorms  Fog  Heavy snow  Heavy precipitations  Wind > 20 kt
SIGMETs :     Misc.  Thunderstorms  Icing  Turbulence  Mountain Waves  Volcanic Ashes






- Airport Elevation : 682 ft
- IATA code : VTB


UMII - Vitebsk

CURRENT METAR :
  • 191500Z 22003MPS 1300 R23/P2000 BR OVC002 M00/M01 Q1029 R23/520240 TEMPO 1000 RMK QBB080

EXPIRED METARs :
  • 191409Z 22004MPS 1400 R23/1400 BR OVC003 M00/M01 Q1028 R23/520240 TEMPO 1100 BKN002 RMK QBB090
  • 191300Z 23004MPS 2600 BR OVC004 M00/M01 Q1028 R23/520240 TEMPO 2000 BKN003 RMK QBB130

TAF TAF UMII
Valid from the 19 at 15:00 until the 20 at 00:00 UTC


191407Z 1915/1924 23005MPS 1000 BR BKN002
TEMPO 1915/1924 VRB02MPS 0300 FZDZ FZFG VV001



MET'MAP, your aeronautical weather chart ! - Copyright ORBIFLY December 2007 - Disclaimer

ORBIFLY MET'MAP TEAM :

Programming & Development : Alexandra Zaïnal
Concept & original design : Baudouin d'Aumeries
Assistance for programming : Marc-Olivier Méhu
Technical & hardware support : Manuel Goepfert

Contact : metmap@orbifly.com




SOURCES & CREDITS :

   NOAA